Time;durP1;ratioP1;P1;durP2;ratioP2;P2;SDS_P1;SDS_P2;PMS_P1;PMS_P2;Temp;Humidity;BMP_temperature;BMP_pressure;BME280_temperature;BME280_humidity;BME280_pressure;Samples;Min_cycle;Max_cycle;Signal;HPM_P1;HPM_P2
2021/05/21 00:00:26;;;;;;;4.55;1.70;;;13.90;99.90;;;;;;5096770;28;20449;-71
2021/05/21 00:02:52;;;;;;;2.28;1.83;;;13.80;99.90;;;;;;5096435;28;20065;-71
2021/05/21 00:05:17;;;;;;;3.00;1.35;;;13.80;99.90;;;;;;5096678;28;20035;-71
2021/05/21 00:07:43;;;;;;;3.25;1.60;;;13.80;99.90;;;;;;5096645;28;20032;-71
2021/05/21 00:10:09;;;;;;;4.35;1.73;;;13.80;99.90;;;;;;5095441;28;20462;-71
2021/05/21 00:12:34;;;;;;;2.70;1.45;;;13.70;99.90;;;;;;5096146;28;20495;-71
2021/05/21 00:15:00;;;;;;;4.05;1.63;;;13.60;99.90;;;;;;5096459;28;20105;-71
2021/05/21 00:17:26;;;;;;;2.60;1.50;;;13.60;99.90;;;;;;5096474;28;20020;-71
2021/05/21 00:19:51;;;;;;;4.57;1.30;;;13.60;99.90;;;;;;5095877;28;20146;-71
2021/05/21 00:22:17;;;;;;;3.65;1.67;;;13.60;99.90;;;;;;5096084;28;20444;-71
2021/05/21 00:24:43;;;;;;;2.72;1.42;;;13.60;99.90;;;;;;5096309;28;20023;-71
2021/05/21 00:27:08;;;;;;;6.22;1.58;;;13.60;99.90;;;;;;5096203;28;20114;-71
2021/05/21 00:29:34;;;;;;;3.30;1.27;;;13.60;99.90;;;;;;5094753;28;20028;-71
2021/05/21 00:32:00;;;;;;;2.35;1.30;;;13.60;99.90;;;;;;5095506;28;20093;-71
2021/05/21 00:34:26;;;;;;;6.68;1.67;;;13.60;99.90;;;;;;5095888;28;20047;-71
2021/05/21 00:36:52;;;;;;;4.10;1.70;;;13.60;99.90;;;;;;5096068;28;20017;-71
2021/05/21 00:39:19;;;;;;;5.07;1.60;;;13.60;99.90;;;;;;5095738;28;20013;-71
2021/05/21 00:41:44;;;;;;;3.70;1.70;;;13.60;99.90;;;;;;5095665;28;20024;-71
2021/05/21 00:44:11;;;;;;;3.45;1.48;;;13.70;99.90;;;;;;5095920;28;20031;-71
2021/05/21 00:46:37;;;;;;;6.88;1.50;;;13.60;99.90;;;;;;5095614;28;20111;-71
2021/05/21 00:49:03;;;;;;;5.80;1.60;;;13.60;99.90;;;;;;5095568;28;20096;-71
2021/05/21 00:51:28;;;;;;;3.63;1.55;;;13.50;99.90;;;;;;5095684;28;20024;-71
2021/05/21 00:53:54;;;;;;;6.35;1.70;;;13.50;99.90;;;;;;5094577;28;20036;-71
2021/05/21 00:56:20;;;;;;;4.03;1.60;;;13.50;99.90;;;;;;5094124;28;20016;-71
2021/05/21 00:58:46;;;;;;;4.15;1.25;;;13.50;99.90;;;;;;5095647;28;20339;-71
2021/05/21 01:01:12;;;;;;;2.92;1.50;;;13.60;99.90;;;;;;5095011;28;20024;-71
2021/05/21 01:03:39;;;;;;;2.53;1.45;;;13.50;99.90;;;;;;5095539;28;20050;-71
2021/05/21 01:06:06;;;;;;;4.00;1.50;;;13.60;99.90;;;;;;5095520;28;20023;-71
2021/05/21 01:08:33;;;;;;;3.72;1.30;;;13.50;99.90;;;;;;5095423;28;20028;-71
2021/05/21 01:10:59;;;;;;;2.47;1.40;;;13.40;99.90;;;;;;5095309;28;20397;-71
2021/05/21 01:13:24;;;;;;;4.90;1.50;;;13.40;99.90;;;;;;5093865;28;20016;-70
2021/05/21 01:15:50;;;;;;;3.00;1.40;;;13.30;99.90;;;;;;5094760;28;20111;-71
2021/05/21 01:18:16;;;;;;;4.28;1.40;;;13.30;99.90;;;;;;5095287;28;20032;-71
2021/05/21 01:20:41;;;;;;;3.13;1.50;;;13.30;99.90;;;;;;5095223;28;20028;-71
2021/05/21 01:23:07;;;;;;;1.50;1.20;;;13.20;99.90;;;;;;5095169;28;20028;-71
2021/05/21 01:25:34;;;;;;;3.20;1.50;;;13.20;99.90;;;;;;5094834;28;20098;-71
2021/05/21 01:28:00;;;;;;;4.50;1.90;;;13.20;99.90;;;;;;5095059;28;20032;-71
2021/05/21 01:30:27;;;;;;;4.15;1.35;;;13.10;99.90;;;;;;5094456;28;20024;-71
2021/05/21 01:32:54;;;;;;;1.88;1.10;;;13.10;99.90;;;;;;5094698;28;20032;-71
2021/05/21 01:35:21;;;;;;;2.17;1.52;;;13.10;99.90;;;;;;5094393;28;20024;-71
2021/05/21 01:37:48;;;;;;;3.03;1.35;;;13.10;99.90;;;;;;5094917;28;20021;-71
2021/05/21 01:40:15;;;;;;;3.65;1.60;;;13.00;99.90;;;;;;5094845;28;20369;-71
2021/05/21 01:42:42;;;;;;;2.13;1.50;;;13.00;99.90;;;;;;5094830;28;20017;-71
2021/05/21 01:45:09;;;;;;;3.22;1.70;;;13.00;99.90;;;;;;5094521;28;20024;-71
2021/05/21 01:47:35;;;;;;;5.43;1.80;;;13.00;99.90;;;;;;5094205;28;20041;-71
2021/05/21 01:50:02;;;;;;;4.97;1.90;;;12.90;99.90;;;;;;5094711;28;20103;-71
2021/05/21 01:52:27;;;;;;;1.95;1.65;;;12.90;99.90;;;;;;5094322;28;20024;-71
2021/05/21 01:54:53;;;;;;;1.65;1.42;;;12.90;99.90;;;;;;5094063;28;20031;-71
2021/05/21 01:57:18;;;;;;;2.10;1.70;;;12.90;99.90;;;;;;5094583;28;20037;-70
2021/05/21 01:59:44;;;;;;;3.58;1.73;;;12.90;99.90;;;;;;5094525;28;20388;-71
2021/05/21 02:02:10;;;;;;;2.17;1.40;;;12.80;99.90;;;;;;5094516;28;20081;-71
2021/05/21 02:04:38;;;;;;;4.43;1.65;;;12.80;99.90;;;;;;5094491;28;20077;-71
2021/05/21 02:07:05;;;;;;;2.17;1.60;;;12.80;99.90;;;;;;5094217;28;20031;-70
2021/05/21 02:09:59;;;;;;;3.90;1.50;;;12.90;99.90;;;;;;5094138;28;20020;-71
2021/05/21 02:12:25;;;;;;;;;;;12.90;99.90;;;;;;5094125;28;20046;-71
2021/05/21 02:14:52;;;;;;;4.25;1.63;;;12.90;99.90;;;;;;5092525;28;19911;-71
2021/05/21 02:17:18;;;;;;;3.47;1.42;;;12.90;99.90;;;;;;5094020;28;20016;-71
2021/05/21 02:19:44;;;;;;;3.45;1.52;;;12.90;99.90;;;;;;5093997;28;20027;-71
2021/05/21 02:22:11;;;;;;;2.35;1.45;;;12.90;99.90;;;;;;5093943;28;20054;-71
2021/05/21 02:24:37;;;;;;;4.80;1.40;;;12.90;99.90;;;;;;5094231;28;20043;-70
2021/05/21 02:27:03;;;;;;;2.22;1.60;;;13.00;99.90;;;;;;5094184;28;20408;-70
2021/05/21 02:29:29;;;;;;;2.50;1.48;;;12.90;99.90;;;;;;5094181;28;20064;-71
2021/05/21 02:31:54;;;;;;;4.90;2.08;;;12.90;99.90;;;;;;5093416;28;20079;-70
2021/05/21 02:34:20;;;;;;;2.10;1.40;;;12.90;99.90;;;;;;5094123;28;20027;-70
2021/05/21 02:36:46;;;;;;;4.13;1.70;;;12.80;99.90;;;;;;5093826;28;20020;-70
2021/05/21 02:39:11;;;;;;;2.33;1.30;;;12.80;99.90;;;;;;5094098;28;20017;-70
2021/05/21 02:41:37;;;;;;;2.05;1.48;;;12.70;99.90;;;;;;5093766;28;20032;-71
2021/05/21 02:44:03;;;;;;;3.47;1.40;;;12.70;99.90;;;;;;5094060;28;20039;-71
2021/05/21 02:46:28;;;;;;;1.92;1.40;;;12.70;99.90;;;;;;5093485;28;20081;-71
2021/05/21 02:48:54;;;;;;;3.35;1.65;;;12.60;99.90;;;;;;5094040;28;20028;-70
2021/05/21 02:51:20;;;;;;;3.85;1.70;;;12.70;99.90;;;;;;5092466;28;20491;-71
2021/05/21 02:53:45;;;;;;;5.53;2.08;;;12.70;99.90;;;;;;5093682;28;20556;-70
2021/05/21 02:56:11;;;;;;;4.28;1.23;;;12.70;99.90;;;;;;5092505;28;20024;-71
2021/05/21 02:58:36;;;;;;;3.88;1.30;;;12.70;99.90;;;;;;5093657;28;20021;-70
2021/05/21 03:01:03;;;;;;;1.67;1.25;;;12.70;99.90;;;;;;5093877;28;20450;-71
2021/05/21 03:03:29;;;;;;;4.18;1.75;;;12.80;99.90;;;;;;5093834;28;20389;-71
2021/05/21 03:05:55;;;;;;;2.83;1.30;;;12.80;99.90;;;;;;5092040;28;20028;-71
2021/05/21 03:08:21;;;;;;;3.10;1.52;;;12.70;99.90;;;;;;5093514;28;20031;-71
2021/05/21 03:10:47;;;;;;;6.75;1.83;;;12.70;99.90;;;;;;5093746;28;20430;-71
2021/05/21 03:13:13;;;;;;;6.40;1.63;;;12.80;99.90;;;;;;5093796;28;20051;-70
2021/05/21 03:15:41;;;;;;;1.88;1.30;;;12.70;99.90;;;;;;5093113;28;20024;-71
2021/05/21 03:18:13;;;;;;;2.05;1.38;;;12.80;99.90;;;;;;5095170;28;20017;-70
2021/05/21 03:20:40;;;;;;;2.67;1.73;;;12.80;99.90;;;;;;5097558;28;20362;-70
2021/05/21 03:23:06;;;;;;;4.28;1.60;;;12.80;99.90;;;;;;5097531;28;20020;-70
2021/05/21 03:25:31;;;;;;;1.60;1.50;;;12.80;99.90;;;;;;5097192;28;20153;-71
2021/05/21 03:27:57;;;;;;;2.80;1.50;;;12.80;99.90;;;;;;5097415;28;20385;-71
2021/05/21 03:30:23;;;;;;;2.58;1.30;;;12.80;99.90;;;;;;5078700;28;20105;-70
2021/05/21 03:32:48;;;;;;;5.15;1.30;;;12.80;99.90;;;;;;5097244;28;20024;-70
2021/05/21 03:35:14;;;;;;;3.47;1.52;;;12.80;99.90;;;;;;5097519;28;20023;-70
2021/05/21 03:37:39;;;;;;;3.35;1.70;;;12.70;99.90;;;;;;5096999;28;20121;-70
2021/05/21 03:40:06;;;;;;;3.97;1.50;;;12.70;99.90;;;;;;5096940;28;20024;-70
2021/05/21 03:42:31;;;;;;;2.30;1.35;;;12.70;99.90;;;;;;5097151;28;20023;-71
2021/05/21 03:44:57;;;;;;;3.03;1.45;;;12.70;99.90;;;;;;5097115;28;20031;-70
2021/05/21 03:47:24;;;;;;;4.63;1.60;;;12.70;99.90;;;;;;5096513;28;20028;-70
2021/05/21 03:49:50;;;;;;;1.90;1.13;;;12.70;99.90;;;;;;5097013;28;20016;-70
2021/05/21 03:52:16;;;;;;;1.75;1.40;;;12.70;99.90;;;;;;5096840;28;20027;-71
2021/05/21 03:54:41;;;;;;;1.75;1.38;;;12.70;99.90;;;;;;5096897;28;20024;-71
2021/05/21 03:57:07;;;;;;;3.60;1.63;;;12.60;99.90;;;;;;5095060;28;20059;-71
2021/05/21 03:59:33;;;;;;;2.47;1.60;;;12.60;99.90;;;;;;5096565;28;20457;-71
2021/05/21 04:01:58;;;;;;;2.95;1.40;;;12.60;99.90;;;;;;5096227;28;20039;-70
2021/05/21 04:04:24;;;;;;;3.30;1.55;;;12.60;99.90;;;;;;5078086;28;20024;-71
2021/05/21 04:06:49;;;;;;;2.83;1.60;;;12.60;99.90;;;;;;5096140;28;20065;-71
2021/05/21 04:09:15;;;;;;;6.10;1.55;;;12.60;99.90;;;;;;5094858;28;20389;-71
2021/05/21 04:11:40;;;;;;;2.47;1.63;;;12.60;99.90;;;;;;5096225;28;20451;-70
2021/05/21 04:14:07;;;;;;;7.05;1.80;;;12.60;99.90;;;;;;5096572;28;20021;-71
2021/05/21 04:16:33;;;;;;;3.63;1.70;;;12.60;99.90;;;;;;5096192;28;20020;-71
2021/05/21 04:18:59;;;;;;;4.07;1.50;;;12.70;99.90;;;;;;5096443;28;20043;-70
2021/05/21 04:21:24;;;;;;;4.68;1.58;;;12.70;99.90;;;;;;5096408;28;20032;-70
2021/05/21 04:23:50;;;;;;;2.92;1.40;;;12.70;99.90;;;;;;5095379;28;20461;-70
2021/05/21 04:26:17;;;;;;;3.92;1.30;;;12.80;99.90;;;;;;5096330;28;20028;-71
2021/05/21 04:28:47;;;;;;;2.50;1.17;;;13.00;99.90;;;;;;5096128;28;20039;-70
2021/05/21 04:31:12;;;;;;;3.58;1.33;;;13.30;99.90;;;;;;5095755;28;20036;-71
2021/05/21 04:33:38;;;;;;;2.47;1.40;;;14.00;99.90;;;;;;5096165;28;20446;-71
2021/05/21 04:36:04;;;;;;;4.50;1.30;;;14.30;99.90;;;;;;5095538;28;20024;-71
2021/05/21 04:38:30;;;;;;;1.20;1.10;;;14.70;99.90;;;;;;5096050;28;20110;-71
2021/05/21 04:40:55;;;;;;;3.72;1.17;;;14.40;99.90;;;;;;5096046;28;20103;-71
2021/05/21 04:43:23;;;;;;;4.47;1.33;;;14.00;99.90;;;;;;5095955;28;20088;-71
2021/05/21 04:45:48;;;;;;;3.47;1.27;;;14.20;99.90;;;;;;5095452;28;20055;-71
2021/05/21 04:48:14;;;;;;;4.88;1.20;;;14.60;99.90;;;;;;5095896;28;20453;-71
2021/05/21 04:50:39;;;;;;;3.65;1.38;;;14.80;99.90;;;;;;5095717;28;20028;-71
2021/05/21 04:53:05;;;;;;;2.40;1.55;;;14.70;99.90;;;;;;5095807;28;20020;-71
2021/05/21 04:55:30;;;;;;;3.25;1.38;;;15.00;99.90;;;;;;5095705;28;20029;-71
2021/05/21 04:57:56;;;;;;;6.47;1.30;;;15.60;99.90;;;;;;5095692;28;20028;-71
2021/05/21 05:00:21;;;;;;;3.88;1.33;;;15.80;99.90;;;;;;5095636;28;20359;-71
2021/05/21 05:02:47;;;;;;;2.80;1.17;;;16.10;99.90;;;;;;5095591;28;20202;-71
2021/05/21 05:05:12;;;;;;;3.25;1.42;;;16.10;99.90;;;;;;5095546;28;20085;-71
2021/05/21 05:07:38;;;;;;;3.83;1.20;;;15.60;99.90;;;;;;5093693;28;20035;-71
2021/05/21 05:10:04;;;;;;;5.50;1.20;;;15.40;99.90;;;;;;5095456;28;20031;-71
2021/05/21 05:12:29;;;;;;;3.85;1.23;;;15.20;99.90;;;;;;5095046;28;20469;-71
2021/05/21 05:14:55;;;;;;;3.58;1.30;;;15.20;99.90;;;;;;5093548;28;20027;-71
2021/05/21 05:17:21;;;;;;;2.45;1.15;;;15.30;99.90;;;;;;5094758;28;20024;-71
2021/05/21 05:19:46;;;;;;;3.30;1.38;;;15.40;99.90;;;;;;5095278;28;20458;-71
2021/05/21 05:22:12;;;;;;;3.78;0.95;;;15.60;99.90;;;;;;5095221;28;20028;-71
2021/05/21 05:24:38;;;;;;;3.70;1.33;;;15.90;99.90;;;;;;5094026;28;20131;-71
2021/05/21 05:27:04;;;;;;;3.92;1.48;;;15.70;99.90;;;;;;5094876;28;20028;-71
2021/05/21 05:29:30;;;;;;;4.63;1.38;;;15.30;99.90;;;;;;5094806;28;20384;-71
2021/05/21 05:31:56;;;;;;;4.32;1.30;;;15.10;99.90;;;;;;5094458;28;20625;-71
2021/05/21 05:34:21;;;;;;;5.00;1.30;;;15.00;99.90;;;;;;5095024;28;20106;-71
2021/05/21 05:36:47;;;;;;;2.83;1.30;;;15.30;99.90;;;;;;5094695;28;20028;-71
2021/05/21 05:39:13;;;;;;;7.15;1.90;;;15.30;99.90;;;;;;5095221;28;20468;-71
2021/05/21 05:41:38;;;;;;;10.50;1.88;;;15.00;99.90;;;;;;5092538;28;20028;-71
2021/05/21 05:44:04;;;;;;;4.72;1.70;;;14.60;99.90;;;;;;5094791;28;20024;-71
2021/05/21 05:46:30;;;;;;;4.72;1.83;;;14.50;99.90;;;;;;5094762;28;20542;-71
2021/05/21 05:48:55;;;;;;;6.20;1.80;;;14.60;99.90;;;;;;5094758;28;20461;-71
2021/05/21 05:51:21;;;;;;;7.10;1.63;;;14.50;99.90;;;;;;5094867;28;20024;-71
2021/05/21 05:53:46;;;;;;;2.97;1.33;;;14.60;99.90;;;;;;5094324;28;20437;-71
2021/05/21 05:56:12;;;;;;;6.40;2.10;;;14.70;99.90;;;;;;5093983;28;20070;-71
2021/05/21 05:58:39;;;;;;;4.38;1.40;;;14.80;99.90;;;;;;5094246;28;20031;-71
2021/05/21 06:01:05;;;;;;;6.60;1.80;;;14.80;99.90;;;;;;5093090;28;20106;-71
2021/05/21 06:03:30;;;;;;;14.82;2.08;;;14.80;99.90;;;;;;5093195;28;20074;-71
2021/05/21 06:05:57;;;;;;;3.05;1.38;;;15.00;99.90;;;;;;5093929;28;20027;-71
2021/05/21 06:08:22;;;;;;;3.65;1.50;;;15.00;99.90;;;;;;5094085;28;20055;-71
2021/05/21 06:10:48;;;;;;;4.70;1.55;;;15.20;99.90;;;;;;5093782;28;20055;-71
2021/05/21 06:13:14;;;;;;;5.10;1.38;;;15.20;99.90;;;;;;5094335;28;20414;-71
2021/05/21 06:15:40;;;;;;;4.50;1.50;;;16.10;99.90;;;;;;5094018;28;20016;-71
2021/05/21 06:18:06;;;;;;;4.78;1.40;;;15.90;99.90;;;;;;5094303;28;20021;-71
2021/05/21 06:20:33;;;;;;;3.58;1.70;;;15.80;99.90;;;;;;5094250;28;20350;-71
2021/05/21 06:23:02;;;;;;;5.47;1.60;;;16.30;99.90;;;;;;5094185;28;20563;-71
2021/05/21 06:28:23;;;;;;;4.25;1.25;;;16.30;99.90;;;;;;5112186;27;20742;-71
2021/05/21 06:30:51;;;;;;;6.10;1.27;;;16.00;99.90;;;;;;5110108;28;20073;-71
2021/05/21 06:33:17;;;;;;;6.45;1.52;;;15.90;99.90;;;;;;5111757;28;20461;-72
2021/05/21 06:35:42;;;;;;;7.95;1.55;;;16.20;99.90;;;;;;5126834;28;20061;-71
2021/05/21 06:38:09;;;;;;;4.75;1.63;;;16.00;99.90;;;;;;5112137;27;20024;-72
2021/05/21 06:40:34;;;;;;;7.30;1.52;;;15.90;99.90;;;;;;5111436;28;20020;-70
2021/05/21 06:43:06;;;;;;;4.03;1.50;;;16.30;99.90;;;;;;5110155;28;20530;-70
2021/05/21 06:45:32;;;;;;;3.72;1.40;;;16.20;99.90;;;;;;5106093;28;20031;-72
2021/05/21 06:47:57;;;;;;;4.85;1.30;;;16.20;99.90;;;;;;5112563;28;20425;-72
2021/05/21 06:50:23;;;;;;;3.20;1.20;;;16.20;99.90;;;;;;5110774;28;20028;-72
2021/05/21 06:52:48;;;;;;;10.88;1.67;;;16.20;99.90;;;;;;5110467;28;20489;-72
2021/05/21 06:55:14;;;;;;;4.22;1.52;;;16.20;99.90;;;;;;5123277;28;20338;-71
2021/05/21 06:57:39;;;;;;;3.40;1.42;;;16.60;99.90;;;;;;5112495;28;20035;-72
2021/05/21 07:00:05;;;;;;;7.47;2.00;;;17.80;99.90;;;;;;5110468;28;20024;-72
2021/05/21 07:02:31;;;;;;;3.72;1.70;;;17.80;99.90;;;;;;5110170;28;20115;-72
2021/05/21 07:04:56;;;;;;;7.65;1.42;;;17.50;99.90;;;;;;5111886;28;20141;-72
2021/05/21 07:07:24;;;;;;;3.53;1.08;;;17.40;99.90;;;;;;5111337;28;20035;-72
2021/05/21 07:09:50;;;;;;;8.40;2.05;;;17.60;99.90;;;;;;5114543;28;20361;-72
2021/05/21 07:12:16;;;;;;;5.30;1.55;;;17.70;99.90;;;;;;5119767;28;20016;-72
2021/05/21 07:14:42;;;;;;;4.75;1.83;;;17.10;99.90;;;;;;5123371;28;20015;-71
2021/05/21 07:17:08;;;;;;;8.63;1.90;;;16.30;99.90;;;;;;5111949;28;20035;-71
2021/05/21 07:19:33;;;;;;;4.90;1.50;;;15.80;99.90;;;;;;5125382;28;20059;-71
2021/05/21 07:21:59;;;;;;;6.22;1.63;;;16.50;99.90;;;;;;5116803;28;20068;-72
2021/05/21 07:24:25;;;;;;;5.68;1.75;;;17.60;99.90;;;;;;5119742;28;20035;-72
2021/05/21 07:26:50;;;;;;;7.80;1.77;;;17.50;99.90;;;;;;5115135;27;20036;-71
2021/05/21 07:29:16;;;;;;;8.73;1.73;;;17.40;99.90;;;;;;5126542;28;20084;-72
2021/05/21 07:31:41;;;;;;;9.07;1.70;;;17.40;99.90;;;;;;5111262;28;20024;-71
2021/05/21 07:34:07;;;;;;;4.80;1.70;;;16.50;99.90;;;;;;5113416;28;20019;-72
2021/05/21 07:36:34;;;;;;;12.43;2.10;;;16.20;99.90;;;;;;5118191;28;20036;-71
2021/05/21 07:39:01;;;;;;;6.75;2.00;;;15.90;99.90;;;;;;5109010;28;20022;-71
2021/05/21 07:41:27;;;;;;;7.20;2.10;;;16.20;99.90;;;;;;5103015;28;20124;-71
2021/05/21 07:43:54;;;;;;;6.65;1.80;;;16.80;99.90;;;;;;5106952;28;20039;-71
2021/05/21 07:46:21;;;;;;;6.93;1.73;;;17.80;99.90;;;;;;5106974;28;20054;-72
2021/05/21 07:48:46;;;;;;;8.43;2.15;;;18.80;99.90;;;;;;5097836;28;20098;-72
2021/05/21 07:51:12;;;;;;;7.15;2.25;;;18.40;99.90;;;;;;5098917;28;20154;-72
2021/05/21 07:53:38;;;;;;;4.78;2.00;;;18.80;99.90;;;;;;5096886;28;20017;-71
2021/05/21 07:56:04;;;;;;;11.40;2.00;;;19.00;99.90;;;;;;5097694;28;20031;-72
2021/05/21 07:58:30;;;;;;;5.13;1.63;;;19.70;99.90;;;;;;5103055;28;20095;-72
2021/05/21 08:00:57;;;;;;;9.48;2.20;;;19.70;99.90;;;;;;5105356;28;20054;-72
2021/05/21 08:03:22;;;;;;;6.00;2.13;;;18.10;99.90;;;;;;5109366;28;20493;-72
2021/05/21 08:05:48;;;;;;;7.38;1.70;;;17.30;99.90;;;;;;5098164;28;20020;-72
2021/05/21 08:08:20;;;;;;;5.93;2.30;;;17.50;99.90;;;;;;5115891;28;20050;-72
2021/05/21 08:10:46;;;;;;;6.63;1.70;;;17.30;99.90;;;;;;5098080;28;20486;-72
2021/05/21 08:13:11;;;;;;;4.45;2.20;;;16.90;99.90;;;;;;5090052;28;20137;-71
2021/05/21 08:15:37;;;;;;;4.47;1.52;;;16.70;99.90;;;;;;5097891;28;20046;-72
2021/05/21 08:18:03;;;;;;;6.18;1.95;;;17.20;99.90;;;;;;5096793;28;20024;-72
2021/05/21 08:20:29;;;;;;;7.22;1.80;;;18.40;99.90;;;;;;5110518;28;20384;-72
2021/05/21 08:22:55;;;;;;;6.15;1.77;;;19.20;99.90;;;;;;5107860;28;20019;-72
2021/05/21 08:25:22;;;;;;;4.57;1.80;;;18.90;99.90;;;;;;5099386;28;20032;-72
2021/05/21 08:27:47;;;;;;;6.60;2.00;;;18.30;99.90;;;;;;5095268;28;20397;-72
2021/05/21 08:30:14;;;;;;;7.93;2.00;;;18.10;99.90;;;;;;5111616;28;20019;-72
2021/05/21 08:32:39;;;;;;;13.20;1.95;;;17.30;99.90;;;;;;5099842;28;20026;-71
2021/05/21 08:35:05;;;;;;;7.38;2.05;;;16.70;99.90;;;;;;5105031;28;20091;-71
2021/05/21 08:37:31;;;;;;;8.50;2.03;;;16.40;99.90;;;;;;5104547;28;20059;-72
2021/05/21 08:39:57;;;;;;;6.97;2.40;;;16.40;99.90;;;;;;5096790;28;20060;-71
2021/05/21 08:42:23;;;;;;;10.48;2.30;;;16.50;99.90;;;;;;5110514;28;20073;-72
2021/05/21 08:44:50;;;;;;;9.65;2.20;;;17.00;99.90;;;;;;5097294;28;20109;-72
2021/05/21 08:47:17;;;;;;;9.25;2.33;;;16.90;99.90;;;;;;5094496;28;20062;-71
2021/05/21 08:49:43;;;;;;;8.95;1.95;;;16.70;99.90;;;;;;5095946;28;20020;-71
2021/05/21 08:52:09;;;;;;;7.28;1.98;;;16.40;99.90;;;;;;5105150;28;20518;-71
2021/05/21 08:54:36;;;;;;;11.70;2.80;;;16.30;99.90;;;;;;5107358;28;20918;-71
2021/05/21 08:57:06;;;;;;;12.15;2.33;;;16.60;99.90;;;;;;5111595;28;20488;-71
2021/05/21 08:59:32;;;;;;;8.48;2.40;;;16.40;99.90;;;;;;5099062;28;20036;-71
2021/05/21 09:01:58;;;;;;;8.02;2.20;;;16.20;99.90;;;;;;5114520;28;20019;-71
2021/05/21 09:04:59;;;;;;;11.57;2.60;;;16.20;99.90;;;;;;5098186;28;20062;-72
2021/05/21 09:07:32;;;;;;;7.28;2.10;;;16.20;99.90;;;;;;5094304;28;20049;-72
2021/05/21 09:10:04;;;;;;;;;;;17.70;99.90;;;;;;5095953;28;20024;-67
2021/05/21 09:12:47;;;;;;;10.77;1.90;;;18.50;99.90;;;;;;5093441;28;19908;-68
2021/05/21 09:15:39;;;;;;;9.70;2.35;;;19.40;99.90;;;;;;5092565;28;20036;-68
2021/05/21 09:18:05;;;;;;;6.80;1.73;;;20.40;98.80;;;;;;5093845;28;20081;-68
2021/05/21 09:20:35;;;;;;;8.85;1.95;;;20.00;95.00;;;;;;5092981;28;20020;-67
2021/05/21 09:23:21;;;;;;;9.85;2.22;;;19.70;92.90;;;;;;5094057;28;20024;-68
2021/05/21 09:25:49;;;;;;;11.10;2.70;;;19.50;93.30;;;;;;5090687;28;20035;-68
2021/05/21 09:31:21;;;;;;;13.23;2.40;;;18.40;87.50;;;;;;5089552;28;20365;-69
2021/05/21 09:33:49;;;;;;;11.60;2.03;;;19.20;87.40;;;;;;5089507;28;20024;-69
2021/05/21 09:36:26;;;;;;;7.53;2.20;;;19.40;87.90;;;;;;5071257;28;20046;-68
2021/05/21 09:38:54;;;;;;;12.45;1.98;;;19.20;88.60;;;;;;5090055;28;20020;-69
2021/05/21 09:41:22;;;;;;;10.75;2.17;;;19.30;86.70;;;;;;5088246;28;20035;-66
2021/05/21 09:43:50;;;;;;;14.98;2.80;;;18.70;88.90;;;;;;5089097;28;20012;-69
2021/05/21 09:46:15;;;;;;;10.65;2.42;;;17.60;94.70;;;;;;5093932;28;20035;-68
2021/05/21 09:48:41;;;;;;;9.82;2.58;;;17.20;97.90;;;;;;5091917;28;20020;-68
2021/05/21 09:51:07;;;;;;;13.32;2.28;;;18.40;95.90;;;;;;5088520;28;20060;-68
2021/05/21 09:53:33;;;;;;;7.90;2.25;;;19.20;95.20;;;;;;5070864;28;20381;-68
2021/05/21 09:56:04;;;;;;;8.35;2.20;;;19.70;91.30;;;;;;5087131;28;20025;-68
2021/05/21 09:58:33;;;;;;;18.88;2.88;;;20.00;86.30;;;;;;5089398;28;20028;-68
2021/05/21 10:01:09;;;;;;;12.68;2.53;;;19.40;78.10;;;;;;5089168;28;20025;-68
2021/05/21 10:03:36;;;;;;;11.43;2.65;;;19.40;78.20;;;;;;5089447;28;20056;-68
2021/05/21 10:06:03;;;;;;;13.07;2.83;;;18.50;83.50;;;;;;5088905;28;20035;-68
2021/05/21 10:08:29;;;;;;;9.57;2.15;;;18.70;84.40;;;;;;5090137;28;20081;-68
2021/05/21 10:10:55;;;;;;;10.43;2.10;;;19.50;77.60;;;;;;5080274;28;20158;-68
2021/05/21 10:13:21;;;;;;;10.98;2.05;;;19.90;71.30;;;;;;5087831;28;20506;-68
2021/05/21 10:15:46;;;;;;;10.90;2.08;;;19.60;69.00;;;;;;5087617;28;20020;-68
2021/05/21 10:18:13;;;;;;;7.85;1.63;;;17.90;78.70;;;;;;5089446;28;20031;-68
2021/05/21 10:20:43;;;;;;;9.15;2.08;;;18.30;75.20;;;;;;5089338;28;20111;-68
2021/05/21 10:23:11;;;;;;;13.85;2.58;;;19.20;72.10;;;;;;5089159;28;20028;-68
2021/05/21 10:25:38;;;;;;;12.95;2.13;;;20.10;70.40;;;;;;5088094;28;20111;-68
2021/05/21 10:28:06;;;;;;;12.38;2.55;;;20.60;68.50;;;;;;5089033;28;20558;-68
2021/05/21 10:30:35;;;;;;;7.45;2.20;;;20.10;59.00;;;;;;5088842;28;20048;-68
2021/05/21 10:33:20;;;;;;;7.40;2.10;;;19.90;61.30;;;;;;5088256;28;20020;-68
2021/05/21 10:35:46;;;;;;;9.23;2.15;;;20.50;60.80;;;;;;5069015;28;20470;-68
2021/05/21 10:38:23;;;;;;;9.48;2.03;;;19.70;60.70;;;;;;5076155;28;20040;-68
2021/05/21 10:41:13;;;;;;;10.55;2.47;;;19.60;61.50;;;;;;5084524;28;20436;-68
2021/05/21 10:43:48;;;;;;;13.48;2.13;;;19.10;63.30;;;;;;5055549;28;20025;-68
2021/05/21 10:46:16;;;;;;;14.32;2.72;;;19.20;63.00;;;;;;5058949;28;20017;-68
2021/05/21 10:49:03;;;;;;;10.05;2.13;;;19.30;62.70;;;;;;5075414;28;20052;-68
2021/05/21 10:51:49;;;;;;;11.68;2.22;;;19.40;60.50;;;;;;5075744;28;20020;-68
2021/05/21 10:54:35;;;;;;;11.55;1.88;;;19.40;61.80;;;;;;5074898;28;20358;-68
2021/05/21 10:57:14;;;;;;;12.40;2.35;;;18.80;64.20;;;;;;5075340;28;20518;-68
2021/05/21 10:59:58;;;;;;;9.43;2.00;;;18.40;64.80;;;;;;5074894;28;20036;-68
2021/05/21 11:02:24;;;;;;;;;;;17.90;65.30;;;;;;5075323;28;20077;-68
2021/05/21 11:04:51;;;;;;;9.93;1.95;;;18.10;64.00;;;;;;5074241;28;19912;-68
2021/05/21 11:07:38;;;;;;;10.52;2.08;;;18.30;63.00;;;;;;5075531;28;20107;-68
2021/05/21 11:10:06;;;;;;;7.68;2.25;;;18.70;64.60;;;;;;5074604;28;20488;-68
2021/05/21 11:12:53;;;;;;;11.20;2.80;;;18.60;65.30;;;;;;5075425;28;20025;-68
2021/05/21 11:15:55;;;;;;;13.23;2.38;;;18.50;65.30;;;;;;5073039;28;20051;-68
2021/05/21 11:18:25;;;;;;;9.05;2.10;;;18.20;64.60;;;;;;5074352;28;20466;-68
2021/05/21 11:20:53;;;;;;;9.27;2.00;;;17.80;68.30;;;;;;5074925;28;20067;-68
2021/05/21 11:23:21;;;;;;;11.73;2.78;;;18.40;66.90;;;;;;5073320;28;20471;-68
2021/05/21 11:26:13;;;;;;;14.60;2.60;;;18.00;67.30;;;;;;5074865;28;20074;-68
2021/05/21 11:28:45;;;;;;;12.45;2.47;;;18.50;66.60;;;;;;5074223;28;20027;-68
2021/05/21 11:31:14;;;;;;;11.70;2.83;;;18.60;67.20;;;;;;5072906;28;20040;-67
2021/05/21 11:33:40;;;;;;;9.25;2.30;;;18.40;65.10;;;;;;5073177;28;20020;-67
2021/05/21 11:36:07;;;;;;;13.23;2.15;;;18.40;65.90;;;;;;5056739;28;20030;-67
2021/05/21 11:38:34;;;;;;;8.95;2.50;;;18.40;67.00;;;;;;5073845;28;20020;-67
2021/05/21 11:40:59;;;;;;;6.75;1.77;;;18.40;65.00;;;;;;5074352;28;20051;-67
2021/05/21 11:43:26;;;;;;;10.18;2.13;;;18.40;64.80;;;;;;5073217;28;20040;-67
2021/05/21 11:45:54;;;;;;;10.23;1.80;;;18.40;66.90;;;;;;5074093;28;20032;-67
2021/05/21 11:48:38;;;;;;;8.90;2.63;;;18.70;63.70;;;;;;5074311;28;20025;-67
2021/05/21 11:51:09;;;;;;;15.32;2.38;;;18.70;62.30;;;;;;5072920;28;20039;-67
2021/05/21 11:53:54;;;;;;;10.20;2.13;;;18.70;60.80;;;;;;5072685;28;20020;-67
2021/05/21 11:59:11;;;;;;;11.32;1.88;;;18.00;61.10;;;;;;5090552;28;20357;-68
2021/05/21 12:01:43;;;;;;;10.90;2.30;;;18.00;62.30;;;;;;5090671;28;20489;-69
2021/05/21 12:04:09;;;;;;;9.48;2.67;;;17.70;62.50;;;;;;5090164;28;20016;-70
2021/05/21 12:06:36;;;;;;;6.10;1.58;;;17.60;63.20;;;;;;5089118;28;20035;-70
2021/05/21 12:09:06;;;;;;;13.15;2.20;;;17.90;63.40;;;;;;5090147;28;20021;-69
2021/05/21 12:11:32;;;;;;;9.68;2.28;;;18.20;63.00;;;;;;5090032;28;20107;-70
2021/05/21 12:14:08;;;;;;;7.65;2.15;;;18.70;63.20;;;;;;5088994;28;20048;-70
2021/05/21 12:16:34;;;;;;;6.75;2.13;;;18.80;63.80;;;;;;5090136;28;20032;-69
2021/05/21 12:19:02;;;;;;;11.80;2.22;;;19.00;63.00;;;;;;5088980;28;20435;-68
2021/05/21 12:21:30;;;;;;;8.10;2.10;;;18.50;62.00;;;;;;5089239;28;20040;-70
2021/05/21 12:23:57;;;;;;;8.43;2.53;;;18.50;65.40;;;;;;5090112;28;20477;-68
2021/05/21 12:26:26;;;;;;;12.73;2.75;;;18.50;62.80;;;;;;5088322;28;20393;-68
2021/05/21 12:28:54;;;;;;;9.70;2.55;;;18.10;66.80;;;;;;5089679;28;20385;-68
2021/05/21 12:31:26;;;;;;;10.90;2.00;;;18.00;64.30;;;;;;5089050;28;20020;-68
2021/05/21 12:33:52;;;;;;;8.70;2.40;;;17.90;65.20;;;;;;5088380;28;20028;-68
2021/05/21 12:36:17;;;;;;;7.90;1.80;;;17.90;65.40;;;;;;5089556;28;20024;-68
2021/05/21 12:38:48;;;;;;;12.45;2.28;;;18.00;64.10;;;;;;5088778;28;20082;-68
2021/05/21 12:41:15;;;;;;;9.10;2.45;;;18.20;67.40;;;;;;5089090;28;20027;-68
2021/05/21 12:43:40;;;;;;;13.60;2.20;;;18.40;66.80;;;;;;5089786;28;20024;-68
2021/05/21 12:46:07;;;;;;;10.07;1.80;;;18.60;66.60;;;;;;5089141;28;20022;-70
2021/05/21 12:48:36;;;;;;;11.45;2.13;;;18.30;63.80;;;;;;5089690;28;20028;-70
2021/05/21 12:51:30;;;;;;;17.20;2.30;;;18.40;60.20;;;;;;5089275;28;20057;-71
2021/05/21 12:57:02;;;;;;;10.55;1.88;;;17.80;62.10;;;;;;5089961;28;20352;-68
2021/05/21 12:59:44;;;;;;;11.05;2.17;;;17.70;60.20;;;;;;5090092;28;20032;-68